CSV9 weather

St-Mathias Seaplane Base
Quebec, Canada

Public forecast

Using degrees Celsius for public forecast. Weather courtesy of forecast.io.

METAR (pilot weather report)

Closest report is MontrĂ©al / Saint-Hubert Airport, 7.0 nm (12.9 km) W. Retrieved 2019/07/20 18:00 UTC (58 minutes ago):

CYHU 201800Z AUTO 22015KT 9SM CLR 31/23 A2968 RMK SLP053 DENSITY ALT 2200FT

TAF (pilot weather forecast)

Closest forecast is MontrĂ©al / Saint-Hubert Airport, 7.0 nm (12.9 km) W. Retrieved 2019/07/20 18:42 UTC (16 minutes ago):

TAF CYHU 201738Z 2018/2118 25012G22KT P6SM SCT040 BKN190 FM202000 24012G22KT P6SM BKN040 OVC200 PROB30 2020/2101 2SM TSRA BR SCT008 BKN040CB OVC190 FM210100 30007KT P6SM SCT040 FM210500 23005KT P6SM BKN140 FM210700 25007KT P6SM -RA OVC040 FM210900 25007KT 6SM -RA BR BKN012 OVC025 PROB30 2109/2115 4SM -RA BR OVC006 FM211500 26010KT P6SM OVC012 RMK FCST BASED ON AUTO OBS. NXT FCST BY 210000Z